createdAt,value
2022-11-04T00:02:08.795Z,20.15
2022-11-04T00:04:36.574Z,21.00
2022-11-04T00:07:23.357Z,19.38
2022-11-04T00:09:50.168Z,18.95
2022-11-04T00:12:26.143Z,19.90
2022-11-04T00:14:53.327Z,19.35
2022-11-04T00:17:20.435Z,19.45
2022-11-04T00:20:07.392Z,19.75
2022-11-04T00:22:53.328Z,22.13
2022-11-04T00:28:30.563Z,22.90
2022-11-04T00:31:18.965Z,23.08
2022-11-04T00:33:47.043Z,21.60
2022-11-04T00:36:13.859Z,22.25
2022-11-04T00:38:40.932Z,21.98
2022-11-04T00:41:26.403Z,22.80
2022-11-04T00:44:03.287Z,20.63
2022-11-04T00:46:32.386Z,21.90
2022-11-04T00:48:59.652Z,21.50
2022-11-04T00:51:27.125Z,22.80
2022-11-04T00:53:54.338Z,22.60
2022-11-04T00:56:21.181Z,24.35
2022-11-04T00:58:50.057Z,24.45
2022-11-04T01:01:18.612Z,22.23
2022-11-04T01:03:50.524Z,21.55
2022-11-04T01:06:17.698Z,22.25
2022-11-04T01:08:44.597Z,23.55
2022-11-04T01:11:12.409Z,21.05
2022-11-04T01:13:39.799Z,19.73
2022-11-04T01:16:11.089Z,20.65
2022-11-04T01:18:38.491Z,19.45
2022-11-04T01:21:07.667Z,21.25
2022-11-04T01:23:35.461Z,19.50
2022-11-04T01:26:06.441Z,20.40
2022-11-04T01:28:33.502Z,20.23
2022-11-04T01:31:05.114Z,18.63
2022-11-04T01:36:01.673Z,17.95
2022-11-04T01:38:29.041Z,19.67
2022-11-04T01:40:55.983Z,19.25
2022-11-04T01:43:23.815Z,20.60
2022-11-04T01:46:01.161Z,20.23
2022-11-04T01:48:34.196Z,20.85
2022-11-04T01:51:01.051Z,20.17
2022-11-04T01:53:37.744Z,20.95
2022-11-04T01:56:12.288Z,20.50
2022-11-04T01:58:44.283Z,21.25
2022-11-04T02:01:12.623Z,22.90
2022-11-04T02:03:45.282Z,22.42
2022-11-04T02:06:12.086Z,22.42
2022-11-04T02:08:41.039Z,22.63
2022-11-04T02:11:07.840Z,23.33
2022-11-04T02:13:36.543Z,23.90
2022-11-04T02:16:31.973Z,23.75
2022-11-04T02:19:05.044Z,21.48
2022-11-04T02:21:53.764Z,21.35
2022-11-04T02:25:01.392Z,19.83
2022-11-04T02:28:13.214Z,18.77
2022-11-04T02:33:56.465Z,16.92
2022-11-04T02:37:02.134Z,19.77
2022-11-04T02:39:50.876Z,20.38
2022-11-04T02:42:38.040Z,20.17
2022-11-04T02:45:15.231Z,21.70
2022-11-04T02:47:54.396Z,21.27
2022-11-04T02:50:34.155Z,21.73
2022-11-04T02:53:16.878Z,20.92
2022-11-04T02:55:48.556Z,20.23
2022-11-04T03:00:52.785Z,18.77
2022-11-04T03:03:25.159Z,19.25
2022-11-04T03:05:54.828Z,18.73
2022-11-04T03:08:30.729Z,21.35
2022-11-04T03:11:04.822Z,21.05
2022-11-04T03:13:44.243Z,19.77
2022-11-04T03:16:16.801Z,20.92
2022-11-04T03:19:20.715Z,21.02
2022-11-04T03:22:04.213Z,20.52
2022-11-04T03:24:31.855Z,19.70
2022-11-04T03:27:00.964Z,19.88
2022-11-04T03:29:39.434Z,20.23
2022-11-04T03:32:47.641Z,19.85
2022-11-04T03:35:16.926Z,20.52
2022-11-04T03:37:45.293Z,19.80
2022-11-04T03:40:13.744Z,19.85
2022-11-04T03:43:14.304Z,19.73
2022-11-04T03:45:42.833Z,20.67
2022-11-04T03:48:10.168Z,22.85
2022-11-04T03:50:42.660Z,21.48
2022-11-04T03:53:12.430Z,22.95
2022-11-04T03:55:52.054Z,21.67
2022-11-04T03:58:32.067Z,21.15
2022-11-04T04:01:19.199Z,22.00
2022-11-04T04:04:14.318Z,24.73
2022-11-04T04:06:43.510Z,24.75
2022-11-04T04:09:42.176Z,26.65
2022-11-04T04:12:26.728Z,26.73
2022-11-04T04:14:58.112Z,26.10
2022-11-04T04:17:42.966Z,25.50
2022-11-04T04:20:18.352Z,24.65
2022-11-04T04:23:39.083Z,22.20
2022-11-04T04:26:26.551Z,21.83
2022-11-04T04:28:56.286Z,22.10
2022-11-04T04:31:44.323Z,21.92
2022-11-04T04:34:11.255Z,20.70
2022-11-04T04:37:19.778Z,21.83
2022-11-04T04:40:20.703Z,21.77
2022-11-04T04:43:18.357Z,21.35
2022-11-04T04:45:51.451Z,20.05
2022-11-04T04:48:18.420Z,19.48
2022-11-04T04:50:48.660Z,19.40
2022-11-04T04:53:15.791Z,21.45
2022-11-04T04:55:42.601Z,21.45
2022-11-04T04:58:10.039Z,21.58
2022-11-04T05:00:36.893Z,23.40
2022-11-04T05:03:03.753Z,22.73
2022-11-04T05:05:30.581Z,21.13
2022-11-04T05:08:08.460Z,21.85
2022-11-04T05:10:35.857Z,21.55
2022-11-04T05:13:21.460Z,23.02
2022-11-04T05:15:48.502Z,19.73
2022-11-04T05:18:15.498Z,18.55
2022-11-04T05:20:42.437Z,18.90
2022-11-04T05:23:12.058Z,19.17
2022-11-04T05:25:40.031Z,19.25
2022-11-04T05:28:07.591Z,18.15
2022-11-04T05:30:35.394Z,19.15
2022-11-04T05:33:04.920Z,18.70
2022-11-04T05:35:33.247Z,18.70
2022-11-04T05:38:00.193Z,16.45
2022-11-04T05:40:27.234Z,18.70
2022-11-04T05:42:54.030Z,18.50
2022-11-04T05:45:20.854Z,18.73
2022-11-04T05:47:47.700Z,17.90
2022-11-04T05:50:14.512Z,19.17
2022-11-04T05:52:41.341Z,19.17
2022-11-04T05:55:08.581Z,18.42
2022-11-04T05:57:35.802Z,18.75
2022-11-04T06:00:03.518Z,20.08
2022-11-04T06:02:30.461Z,19.38
2022-11-04T06:04:57.463Z,20.20
2022-11-04T06:07:24.267Z,20.63
2022-11-04T06:09:51.113Z,21.15
2022-11-04T06:12:18.007Z,20.83
2022-11-04T06:14:45.192Z,19.83
2022-11-04T06:17:20.710Z,20.00
2022-11-04T06:19:48.396Z,18.98
2022-11-04T06:22:17.583Z,19.30
2022-11-04T06:24:44.642Z,20.20
2022-11-04T06:27:12.553Z,20.80
2022-11-04T06:29:41.179Z,22.38
2022-11-04T06:32:13.731Z,22.05
2022-11-04T06:34:40.613Z,23.58
2022-11-04T06:37:08.237Z,22.67
2022-11-04T06:39:35.052Z,22.30
2022-11-04T06:42:02.918Z,22.60
2022-11-04T06:44:30.430Z,33.13
2022-11-04T06:46:57.455Z,27.80
2022-11-04T06:49:24.288Z,44.67
2022-11-04T06:51:52.055Z,37.85
2022-11-04T06:54:19.234Z,22.73
2022-11-04T06:56:46.498Z,22.90
2022-11-04T06:59:17.340Z,20.02
2022-11-04T07:01:44.717Z,17.50
2022-11-04T07:04:11.712Z,16.73
2022-11-04T07:06:43.941Z,16.05
2022-11-04T07:09:13.808Z,16.70
2022-11-04T07:11:41.055Z,18.88
2022-11-04T07:14:09.051Z,17.50
2022-11-04T07:16:36.143Z,17.40
2022-11-04T07:19:03.272Z,17.05
2022-11-04T07:21:30.349Z,24.15
2022-11-04T07:23:57.445Z,19.08
2022-11-04T07:26:24.282Z,18.42
2022-11-04T07:28:51.171Z,18.00
2022-11-04T07:31:18.604Z,16.45
2022-11-04T07:33:50.148Z,16.85
2022-11-04T07:38:45.324Z,15.90
2022-11-04T07:41:13.063Z,15.43
2022-11-04T07:43:39.907Z,15.95
2022-11-04T07:46:11.334Z,17.48
2022-11-04T07:48:38.697Z,14.85
2022-11-04T07:51:07.608Z,14.60
2022-11-04T07:53:34.864Z,14.93
2022-11-04T07:56:06.847Z,14.52
2022-11-04T07:58:34.733Z,20.90
2022-11-04T08:01:03.691Z,17.50
2022-11-04T08:03:30.558Z,14.65
2022-11-04T08:05:59.065Z,13.10
2022-11-04T08:08:26.884Z,13.10
2022-11-04T08:11:02.852Z,12.90
2022-11-04T08:13:35.288Z,12.70
2022-11-04T08:16:04.634Z,21.60
2022-11-04T08:18:33.097Z,16.35
2022-11-04T08:21:00.646Z,14.70
2022-11-04T08:23:27.492Z,11.98
2022-11-04T08:25:54.688Z,11.75
2022-11-04T08:28:21.495Z,11.20
2022-11-04T08:30:55.527Z,11.18
2022-11-04T08:33:23.757Z,11.80
2022-11-04T08:35:50.655Z,11.75
2022-11-04T08:38:17.631Z,11.02
2022-11-04T08:40:45.107Z,10.65
2022-11-04T08:43:12.267Z,10.50
2022-11-04T08:45:41.989Z,12.15
2022-11-04T08:48:09.113Z,11.50
2022-11-04T08:50:36.267Z,9.48
2022-11-04T08:53:04.265Z,10.73
2022-11-04T08:55:32.196Z,10.18
2022-11-04T08:57:59.834Z,10.48
2022-11-04T09:00:26.952Z,10.00
2022-11-04T09:02:55.654Z,10.45
2022-11-04T09:05:22.927Z,10.95
2022-11-04T09:07:49.890Z,12.10
2022-11-04T09:10:17.400Z,15.23
2022-11-04T09:12:45.132Z,13.02
2022-11-04T09:15:12.689Z,13.02
2022-11-04T09:17:40.567Z,13.07
2022-11-04T09:20:08.229Z,13.18
2022-11-04T09:22:35.075Z,13.43
2022-11-04T09:25:02.057Z,12.68
2022-11-04T09:27:29.649Z,13.20
2022-11-04T09:29:56.435Z,13.38
2022-11-04T09:32:23.248Z,12.73
2022-11-04T09:34:50.082Z,13.75
2022-11-04T09:37:16.935Z,13.63
2022-11-04T09:39:43.711Z,13.20
2022-11-04T09:42:31.034Z,13.43
2022-11-04T09:45:26.545Z,13.98
2022-11-04T09:47:58.582Z,14.73
2022-11-04T09:50:49.335Z,16.17
2022-11-04T09:53:20.779Z,16.55
2022-11-04T09:56:02.072Z,15.13
2022-11-04T09:58:33.962Z,13.45
2022-11-04T10:01:42.478Z,14.07
2022-11-04T10:04:23.699Z,13.90
2022-11-04T10:07:28.354Z,12.60
2022-11-04T10:10:30.769Z,13.13
2022-11-04T10:13:01.971Z,12.80
2022-11-04T10:15:42.189Z,13.32
2022-11-04T10:18:25.445Z,13.18
2022-11-04T10:20:58.512Z,13.73
2022-11-04T10:24:03.018Z,15.52
2022-11-04T10:26:43.615Z,15.10
2022-11-04T10:29:38.123Z,14.68
2022-11-04T10:32:19.486Z,16.30
2022-11-04T10:35:30.511Z,13.25
2022-11-04T10:38:01.815Z,13.35
2022-11-04T10:40:36.416Z,10.07
2022-11-04T10:43:09.554Z,8.27
2022-11-04T10:46:01.923Z,6.88
2022-11-04T10:48:37.020Z,18.25
2022-11-04T10:51:05.513Z,20.35
2022-11-04T10:53:33.651Z,8.35
2022-11-04T10:56:10.829Z,12.02
2022-11-04T10:58:45.107Z,6.55
2022-11-04T11:01:31.176Z,5.53
2022-11-04T11:03:59.404Z,5.25
2022-11-04T11:06:31.836Z,5.68
2022-11-04T11:09:53.775Z,6.47
2022-11-04T11:12:52.670Z,6.20
2022-11-04T11:15:45.668Z,8.88
2022-11-04T11:18:43.447Z,8.30
2022-11-04T11:21:37.493Z,6.53
2022-11-04T11:24:35.474Z,5.80
2022-11-04T11:27:33.722Z,5.65
2022-11-04T11:30:20.833Z,5.78
2022-11-04T11:33:08.743Z,6.15
2022-11-04T11:36:02.044Z,5.50
2022-11-04T11:38:54.794Z,6.22
2022-11-04T11:41:49.169Z,16.02
2022-11-04T11:45:10.363Z,12.85
2022-11-04T11:48:06.472Z,8.52
2022-11-04T11:50:53.543Z,6.40
2022-11-04T11:53:40.801Z,6.03
2022-11-04T12:09:48.974Z,7.20
2022-11-04T12:12:18.491Z,7.03
2022-11-04T12:15:03.548Z,5.97
2022-11-04T12:17:52.553Z,4.75
2022-11-04T12:21:11.921Z,4.80
2022-11-04T12:24:14.228Z,4.40
2022-11-04T12:27:25.765Z,5.03
2022-11-04T12:30:42.460Z,5.65
2022-11-04T12:33:25.730Z,8.93
2022-11-04T12:36:20.224Z,7.45
2022-11-04T12:38:57.325Z,7.45
2022-11-04T12:44:50.907Z,7.40
2022-11-04T12:47:26.922Z,6.97
2022-11-04T12:50:12.547Z,6.97
2022-11-04T12:52:51.050Z,7.43
2022-11-04T12:55:43.606Z,7.32
2022-11-04T12:58:17.323Z,13.43
2022-11-04T13:00:48.466Z,14.38
2022-11-04T13:03:18.041Z,9.93
2022-11-04T13:05:50.761Z,8.45
2022-11-04T13:08:24.402Z,7.55
2022-11-04T13:10:54.293Z,7.72
2022-11-04T13:13:27.724Z,7.30
2022-11-04T13:15:58.444Z,6.78
2022-11-04T13:18:28.278Z,7.23
2022-11-04T13:21:02.720Z,15.52
2022-11-04T13:23:39.453Z,7.80
2022-11-04T13:26:13.290Z,8.63
2022-11-04T13:28:41.951Z,9.55
2022-11-04T13:31:41.221Z,9.93
2022-11-04T13:34:33.085Z,12.07
2022-11-04T13:37:22.163Z,8.00
2022-11-04T13:39:57.119Z,7.82
2022-11-04T13:42:26.879Z,12.95
2022-11-04T13:44:58.003Z,8.55
2022-11-04T13:47:36.214Z,7.78
2022-11-04T13:50:04.143Z,8.27
2022-11-04T13:52:32.623Z,7.82
2022-11-04T13:55:05.610Z,8.73
2022-11-04T13:57:49.213Z,8.48
2022-11-04T14:00:16.234Z,9.32
2022-11-04T14:02:44.081Z,8.50
2022-11-04T14:05:32.458Z,8.65
2022-11-04T14:08:02.064Z,6.57
2022-11-04T14:10:49.950Z,5.95
2022-11-04T14:13:42.519Z,6.28
2022-11-04T14:16:13.919Z,5.30
2022-11-04T14:18:43.009Z,9.50
2022-11-04T14:21:15.199Z,7.80
2022-11-04T14:24:16.359Z,7.60
2022-11-04T14:26:47.011Z,12.30
2022-11-04T14:29:23.319Z,26.85
2022-11-04T14:31:59.419Z,19.90
2022-11-04T14:34:33.564Z,5.85
2022-11-04T14:37:15.331Z,9.50
2022-11-04T14:39:43.203Z,6.40
2022-11-04T14:42:13.904Z,6.25
2022-11-04T14:44:49.601Z,6.83
2022-11-04T14:47:20.042Z,8.52
2022-11-04T14:50:08.828Z,10.65
2022-11-04T14:52:38.917Z,8.77
2022-11-04T14:55:15.999Z,8.30
2022-11-04T14:58:21.101Z,9.30
2022-11-04T15:00:51.094Z,8.38
2022-11-04T15:04:08.717Z,8.68
2022-11-04T15:06:10.023Z,12.15
2022-11-04T15:08:44.388Z,8.18
2022-11-04T15:11:16.649Z,9.63
2022-11-04T15:13:46.632Z,9.07
2022-11-04T15:16:24.432Z,8.52
2022-11-04T15:18:53.212Z,9.15
2022-11-04T15:21:20.119Z,10.75
2022-11-04T15:23:52.883Z,9.50
2022-11-04T15:26:29.689Z,8.45
2022-11-04T15:29:02.012Z,8.75
2022-11-04T15:31:32.312Z,8.90
2022-11-04T15:34:08.220Z,8.60
2022-11-04T15:36:41.612Z,9.00
2022-11-04T15:39:16.605Z,9.73
2022-11-04T15:42:03.484Z,9.75
2022-11-04T15:44:35.495Z,8.38
2022-11-04T15:47:20.419Z,8.85
2022-11-04T15:49:49.936Z,9.18
2022-11-04T15:52:27.733Z,9.05
2022-11-04T15:55:00.218Z,9.32
2022-11-04T15:57:37.956Z,10.40
2022-11-04T16:00:15.634Z,8.95
2022-11-04T16:02:49.201Z,8.65
2022-11-04T16:05:16.252Z,7.25
2022-11-04T16:07:47.560Z,8.18
2022-11-04T16:10:32.536Z,8.07
2022-11-04T16:13:21.482Z,8.23
2022-11-04T16:16:01.716Z,8.63
2022-11-04T16:18:37.603Z,9.93
2022-11-04T16:21:12.638Z,9.95
2022-11-04T16:23:50.327Z,7.63
2022-11-04T16:26:23.728Z,8.07
2022-11-04T16:28:57.235Z,8.27
2022-11-04T16:31:34.276Z,7.05
2022-11-04T16:34:01.316Z,7.30
2022-11-04T16:36:34.068Z,7.50
2022-11-04T16:39:06.593Z,7.70
2022-11-04T16:41:37.121Z,7.93
2022-11-04T16:44:05.830Z,7.72
2022-11-04T16:46:34.002Z,6.50
2022-11-04T16:49:00.794Z,6.75
2022-11-04T16:51:27.601Z,7.55
2022-11-04T16:53:55.186Z,6.28
2022-11-04T16:56:24.954Z,9.20
2022-11-04T16:58:52.936Z,7.82
2022-11-04T17:01:21.339Z,7.90
2022-11-04T17:03:48.347Z,6.60
2022-11-04T17:06:16.650Z,7.45
2022-11-04T17:08:43.581Z,7.07
2022-11-04T17:11:11.781Z,5.90
2022-11-04T17:13:39.157Z,7.47
2022-11-04T17:16:08.166Z,8.52
2022-11-04T17:18:36.647Z,6.47
2022-11-04T17:21:07.932Z,6.57
2022-11-04T17:23:35.135Z,6.78
2022-11-04T17:26:02.254Z,7.47
2022-11-04T17:28:29.962Z,10.98
2022-11-04T17:30:56.806Z,7.57
2022-11-04T17:33:23.746Z,6.97
2022-11-04T17:35:51.544Z,6.57
2022-11-04T17:38:19.127Z,7.13
2022-11-04T17:41:05.074Z,7.60
2022-11-04T17:43:50.882Z,7.95
2022-11-04T17:46:36.425Z,6.47
2022-11-04T17:49:08.510Z,7.07
2022-11-04T17:51:36.744Z,6.22
2022-11-04T17:54:04.247Z,8.48
2022-11-04T17:56:31.934Z,7.40
2022-11-04T17:59:01.318Z,7.75
2022-11-04T18:01:28.414Z,7.60
2022-11-04T18:03:55.666Z,7.13
2022-11-04T18:06:23.361Z,7.85
2022-11-04T18:08:54.212Z,7.05
2022-11-04T18:11:40.724Z,6.33
2022-11-04T18:14:10.027Z,6.30
2022-11-04T18:16:42.021Z,5.47
2022-11-04T18:19:09.727Z,6.40
2022-11-04T18:21:36.667Z,6.57
2022-11-04T18:24:04.326Z,6.45
2022-11-04T18:26:31.568Z,6.18
2022-11-04T18:28:58.425Z,6.38
2022-11-04T18:31:31.163Z,6.72
2022-11-04T18:34:03.522Z,6.55
2022-11-04T18:36:31.334Z,6.20
2022-11-04T18:38:58.152Z,5.93
2022-11-04T18:41:25.270Z,6.13
2022-11-04T18:43:52.412Z,6.65
2022-11-04T18:46:19.626Z,6.43
2022-11-04T18:48:50.891Z,6.93
2022-11-04T18:51:21.973Z,5.82
2022-11-04T18:53:49.594Z,5.88
2022-11-04T18:56:19.467Z,5.63
2022-11-04T18:58:46.822Z,5.80
2022-11-04T19:01:22.885Z,5.60
2022-11-04T19:03:50.158Z,5.40
2022-11-04T19:06:20.222Z,5.90
2022-11-04T19:08:50.471Z,5.30
2022-11-04T19:11:30.741Z,6.43
2022-11-04T19:14:03.845Z,5.63
2022-11-04T19:16:33.958Z,5.60
2022-11-04T19:19:02.936Z,5.93
2022-11-04T19:21:30.232Z,5.72
2022-11-04T19:23:59.932Z,5.30
2022-11-04T19:26:29.313Z,5.00
2022-11-04T19:28:56.928Z,5.93
2022-11-04T19:31:26.972Z,5.95
2022-11-04T19:33:55.326Z,6.75
2022-11-04T19:36:23.648Z,6.53
2022-11-04T19:38:56.857Z,7.45
2022-11-04T19:41:43.044Z,7.18
2022-11-04T19:44:13.252Z,6.40
2022-11-04T19:46:40.598Z,6.20
2022-11-04T19:49:07.852Z,6.57
2022-11-04T19:51:36.053Z,5.90
2022-11-04T19:54:03.422Z,6.32
2022-11-04T19:56:31.444Z,6.78
2022-11-04T19:59:03.056Z,7.18
2022-11-04T20:01:34.519Z,10.13
2022-11-04T20:04:02.880Z,7.30
2022-11-04T20:06:32.190Z,5.88
2022-11-04T20:09:05.386Z,6.05
2022-11-04T20:11:33.779Z,7.68
2022-11-04T20:14:07.561Z,7.28
2022-11-04T20:16:39.503Z,5.45
2022-11-04T20:21:36.541Z,4.90
2022-11-04T20:24:07.009Z,5.00
2022-11-04T20:26:36.443Z,8.40
2022-11-04T20:29:04.686Z,7.50
2022-11-04T20:31:34.058Z,5.43
2022-11-04T20:34:08.052Z,5.10
2022-11-04T20:36:36.309Z,5.10
2022-11-04T20:39:06.540Z,4.88
2022-11-04T20:41:33.578Z,5.20
2022-11-04T20:44:00.662Z,4.90
2022-11-04T20:46:30.243Z,4.90
2022-11-04T20:48:58.483Z,4.85
2022-11-04T20:51:30.807Z,4.85
2022-11-04T20:54:00.636Z,6.78
2022-11-04T20:56:31.210Z,4.72
2022-11-04T20:58:59.797Z,4.93
2022-11-04T21:01:30.405Z,5.55
2022-11-04T21:04:01.165Z,5.45
2022-11-04T21:06:28.955Z,5.07
2022-11-04T21:08:58.207Z,5.53
2022-11-04T21:11:31.774Z,6.28
2022-11-04T21:13:59.619Z,6.22
2022-11-04T21:16:26.807Z,5.72
2022-11-04T21:18:54.623Z,6.50
2022-11-04T21:21:21.437Z,10.75
2022-11-04T21:23:48.767Z,8.30
2022-11-04T21:26:23.015Z,5.78
2022-11-04T21:29:03.480Z,5.28
2022-11-04T21:31:32.367Z,5.28
2022-11-04T21:33:59.486Z,8.90
2022-11-04T21:36:26.795Z,7.18
2022-11-04T21:38:53.644Z,5.13
2022-11-04T21:41:24.360Z,8.20
2022-11-04T21:44:02.428Z,9.20
2022-11-04T21:46:31.976Z,13.18
2022-11-04T21:48:59.853Z,16.40
2022-11-04T21:51:29.839Z,16.77
2022-11-04T21:53:57.629Z,15.52
2022-11-04T21:56:27.073Z,11.10
2022-11-04T21:58:54.874Z,15.70
2022-11-04T22:01:24.966Z,9.20
2022-11-04T22:03:54.713Z,8.60
2022-11-04T22:06:22.241Z,6.50
2022-11-04T22:08:54.300Z,5.97
2022-11-04T22:11:26.911Z,7.00
2022-11-04T22:13:58.286Z,6.05
2022-11-04T22:16:27.757Z,5.28
2022-11-04T22:18:56.848Z,5.40
2022-11-04T22:21:25.434Z,5.57
2022-11-04T22:23:52.797Z,5.28
2022-11-04T22:26:24.320Z,5.40
2022-11-04T22:28:52.249Z,4.55
2022-11-04T22:31:20.490Z,4.85
2022-11-04T22:33:47.316Z,5.22
2022-11-04T22:36:14.698Z,5.38
2022-11-04T22:38:42.720Z,5.28
2022-11-04T22:41:23.060Z,3.97
2022-11-04T22:43:50.068Z,4.75
2022-11-04T22:46:28.461Z,5.28
2022-11-04T22:48:55.510Z,5.07
2022-11-04T22:51:22.801Z,4.57
2022-11-04T22:53:56.640Z,5.10
2022-11-04T22:56:23.785Z,5.13
2022-11-04T22:58:51.402Z,4.53
2022-11-04T23:01:18.373Z,4.78
2022-11-04T23:03:45.374Z,4.72
2022-11-04T23:06:12.317Z,5.28
2022-11-04T23:08:40.196Z,5.00
2022-11-04T23:11:32.115Z,5.15
2022-11-04T23:17:08.983Z,4.57
2022-11-04T23:19:37.193Z,4.68
2022-11-04T23:22:23.257Z,4.40
2022-11-04T23:25:08.687Z,4.57
2022-11-04T23:27:59.518Z,4.57
2022-11-04T23:30:28.865Z,4.25
2022-11-04T23:32:58.630Z,3.50
2022-11-04T23:35:50.134Z,3.60
2022-11-04T23:38:17.570Z,3.70
2022-11-04T23:41:04.453Z,3.72
2022-11-04T23:43:31.614Z,3.60
2022-11-04T23:46:17.086Z,3.53
2022-11-04T23:49:02.640Z,3.83
2022-11-04T23:51:48.055Z,3.55
2022-11-04T23:54:33.492Z,3.80
2022-11-04T23:57:18.815Z,3.95
